Погода Пилар-ду-Сулна 2 недели

Сан-Паулу, Бразилия

19 июля-01 августа
  • 19июля
    Сегодня
    +10°
    +23°
    Ясно и безоблачно
    ВремяПогодаТемператураВлажностьДавлениеВетер, м/сВероятность осадков
    00:00Облачно с прояснениями+15°C98 %697 мм3.6 м/с12 %
    03:00Небольшая облачность+14°C95 %697 мм3.5 м/с9 %
    06:00Облачно с прояснениями+13°C95 %697 мм3.9 м/с8 %
    09:00Практически безоблачно+15°C82 %699 мм3.0 м/с14 %
    12:00Ясно и безоблачно+20°C63 %700 мм2.2 м/с12 %
    15:00Ясно и безоблачно+22°C59 %698 мм1.4 м/с2 %
    18:00Ясно и безоблачно+17°C89 %697 мм1.9 м/с5 %
    21:00Ясно и безоблачно+16°C96 %697 мм2.9 м/с5 %
  • 20июля
    Суббота
    +11°
    +23°
    Ясно и безоблачно
    ВремяПогодаТемператураВлажностьДавлениеВетер, м/сВероятность осадков
    00:00Практически безоблачно+14°C96 %697 мм3.1 м/с5 %
    03:00Практически безоблачно+12°C94 %696 мм3.5 м/с5 %
    06:00Ясно и безоблачно+11°C89 %695 мм2.7 м/с4 %
    09:00Практически безоблачно+15°C76 %698 мм3.4 м/с4 %
    12:00Ясно и безоблачно+20°C58 %698 мм2.7 м/с5 %
    15:00Ясно и безоблачно+22°C59 %697 мм2.8 м/с5 %
    18:00Ясно и безоблачно+16°C91 %696 мм4.0 м/с5 %
    21:00Пасмурно, сплошная облачность+14°C98 %696 мм4.8 м/с2 %
  • 21июля
    Воскресенье
    +12°
    +25°
    Ясно и безоблачно
    ВремяПогодаТемператураВлажностьДавлениеВетер, м/сВероятность осадков
    00:00Небольшая облачность+13°C94 %696 мм3.3 м/с4 %
    03:00Облачно с прояснениями+12°C95 %695 мм4.4 м/с10 %
    06:00Облачно с прояснениями+12°C98 %695 мм3.5 м/с7 %
    09:00Практически безоблачно+15°C85 %697 мм2.2 м/с5 %
    12:00Ясно и безоблачно+21°C64 %697 мм1.6 м/с3 %
    15:00Ясно и безоблачно+24°C54 %696 мм1.3 м/с5 %
    18:00Практически безоблачно+19°C86 %695 мм2.5 м/с5 %
    21:00Практически безоблачно+16°C98 %695 мм1.7 м/с5 %
  • 22июля
    Понедельник
    +12°
    +26°
    Ясно и безоблачно
    ВремяПогодаТемператураВлажностьДавлениеВетер, м/сВероятность осадков
    00:00Небольшая облачность+14°C99 %695 мм1.2 м/с5 %
    03:00Ясно и безоблачно+15°C81 %695 мм0.7 м/с5 %
    06:00Ясно и безоблачно+15°C79 %696 мм0.5 м/с5 %
    09:00Ясно и безоблачно+18°C78 %698 мм0.6 м/с5 %
    12:00Ясно и безоблачно+23°C55 %698 мм1.3 м/с5 %
    15:00Ясно и безоблачно+25°C48 %697 мм1.8 м/с5 %
    18:00Ясно и безоблачно+19°C85 %697 мм3.7 м/с5 %
    21:00Небольшая облачность+17°C96 %698 мм4.1 м/с5 %
  • 23июля
    Вторник
    +12°
    +24°
    Ясно и безоблачно
    ВремяПогодаТемператураВлажностьДавлениеВетер, м/сВероятность осадков
    00:00Практически безоблачно+15°C94 %697 мм3.9 м/с5 %
    03:00Практически безоблачно+14°C93 %696 мм3.9 м/с5 %
    06:00Небольшая облачность+13°C97 %697 мм3.7 м/с6 %
    09:00Ясно и безоблачно+15°C80 %698 мм2.7 м/с6 %
    12:00Ясно и безоблачно+22°C58 %699 мм1.9 м/с5 %
    15:00Ясно и безоблачно+23°C61 %698 мм2.4 м/с5 %
    18:00Ясно и безоблачно+18°C90 %697 мм4.0 м/с5 %
    21:00Небольшая облачность+16°C97 %697 мм3.9 м/с5 %
Мы используем cookies
Соглашаюсь